sensor_id;sensor_type;location;lat;lon;timestamp;P1;durP1;ratioP1;P2;durP2;ratioP2
43901;SDS011;29562;40.390;-3.706;2022-10-31T00:01:45;14.35;;;8.20;;
43901;SDS011;29562;40.390;-3.706;2022-10-31T00:11:47;12.90;;;7.82;;
43901;SDS011;29562;40.390;-3.706;2022-10-31T00:21:51;11.55;;;6.88;;
43901;SDS011;29562;40.390;-3.706;2022-10-31T00:31:53;14.60;;;7.10;;
43901;SDS011;29562;40.390;-3.706;2022-10-31T00:41:55;10.63;;;6.53;;
43901;SDS011;29562;40.390;-3.706;2022-10-31T00:51:57;11.30;;;6.97;;
43901;SDS011;29562;40.390;-3.706;2022-10-31T01:01:59;11.30;;;6.82;;
43901;SDS011;29562;40.390;-3.706;2022-10-31T01:12:01;11.85;;;6.95;;
43901;SDS011;29562;40.390;-3.706;2022-10-31T01:22:03;12.95;;;6.75;;
43901;SDS011;29562;40.390;-3.706;2022-10-31T01:32:05;10.88;;;6.32;;
43901;SDS011;29562;40.390;-3.706;2022-10-31T01:42:09;11.50;;;6.82;;
43901;SDS011;29562;40.390;-3.706;2022-10-31T02:02:27;9.55;;;5.68;;
43901;SDS011;29562;40.390;-3.706;2022-10-31T02:12:30;12.13;;;5.95;;
43901;SDS011;29562;40.390;-3.706;2022-10-31T02:53:03;13.13;;;6.90;;
43901;SDS011;29562;40.390;-3.706;2022-10-31T03:03:11;8.35;;;6.10;;
43901;SDS011;29562;40.390;-3.706;2022-10-31T03:23:30;10.90;;;6.22;;
43901;SDS011;29562;40.390;-3.706;2022-10-31T03:33:35;11.35;;;6.45;;
43901;SDS011;29562;40.390;-3.706;2022-10-31T03:43:42;12.57;;;5.95;;
43901;SDS011;29562;40.390;-3.706;2022-10-31T04:03:52;13.25;;;8.05;;
43901;SDS011;29562;40.390;-3.706;2022-10-31T04:13:56;11.55;;;7.70;;
43901;SDS011;29562;40.390;-3.706;2022-10-31T04:24:03;11.25;;;7.63;;
43901;SDS011;29562;40.390;-3.706;2022-10-31T04:34:24;12.05;;;7.57;;
43901;SDS011;29562;40.390;-3.706;2022-10-31T04:44:46;10.40;;;6.00;;
43901;SDS011;29562;40.390;-3.706;2022-10-31T04:55:07;12.30;;;6.30;;
43901;SDS011;29562;40.390;-3.706;2022-10-31T05:05:29;14.82;;;6.60;;
43901;SDS011;29562;40.390;-3.706;2022-10-31T05:15:33;10.93;;;6.00;;
43901;SDS011;29562;40.390;-3.706;2022-10-31T05:25:36;9.88;;;6.75;;
43901;SDS011;29562;40.390;-3.706;2022-10-31T05:35:39;13.20;;;6.97;;
43901;SDS011;29562;40.390;-3.706;2022-10-31T05:45:41;12.18;;;6.50;;
43901;SDS011;29562;40.390;-3.706;2022-10-31T05:55:44;11.10;;;6.15;;
43901;SDS011;29562;40.390;-3.706;2022-10-31T06:05:46;14.43;;;7.22;;
43901;SDS011;29562;40.390;-3.706;2022-10-31T06:15:48;15.52;;;6.85;;
43901;SDS011;29562;40.390;-3.706;2022-10-31T06:25:50;11.15;;;6.88;;
43901;SDS011;29562;40.390;-3.706;2022-10-31T06:35:51;14.88;;;7.30;;
43901;SDS011;29562;40.390;-3.706;2022-10-31T06:45:53;17.60;;;6.90;;
43901;SDS011;29562;40.390;-3.706;2022-10-31T06:55:56;12.07;;;7.30;;
43901;SDS011;29562;40.390;-3.706;2022-10-31T07:05:58;14.95;;;7.97;;
43901;SDS011;29562;40.390;-3.706;2022-10-31T07:16:00;16.92;;;7.50;;
43901;SDS011;29562;40.390;-3.706;2022-10-31T07:26:03;17.75;;;7.97;;
43901;SDS011;29562;40.390;-3.706;2022-10-31T07:36:05;40.97;;;9.57;;
43901;SDS011;29562;40.390;-3.706;2022-10-31T07:46:07;18.58;;;8.13;;
43901;SDS011;29562;40.390;-3.706;2022-10-31T07:56:09;14.82;;;7.93;;
43901;SDS011;29562;40.390;-3.706;2022-10-31T08:06:12;19.35;;;9.23;;
43901;SDS011;29562;40.390;-3.706;2022-10-31T08:16:14;19.65;;;9.13;;
43901;SDS011;29562;40.390;-3.706;2022-10-31T08:26:16;14.80;;;9.52;;
43901;SDS011;29562;40.390;-3.706;2022-10-31T08:36:18;14.82;;;9.18;;
43901;SDS011;29562;40.390;-3.706;2022-10-31T08:46:20;21.83;;;8.32;;
43901;SDS011;29562;40.390;-3.706;2022-10-31T08:56:22;14.77;;;8.75;;
43901;SDS011;29562;40.390;-3.706;2022-10-31T09:06:24;15.20;;;8.23;;
43901;SDS011;29562;40.390;-3.706;2022-10-31T09:16:25;21.27;;;8.65;;
43901;SDS011;29562;40.390;-3.706;2022-10-31T09:26:27;14.07;;;8.68;;
43901;SDS011;29562;40.390;-3.706;2022-10-31T09:36:29;14.73;;;8.40;;
43901;SDS011;29562;40.390;-3.706;2022-10-31T09:46:49;17.30;;;8.57;;
43901;SDS011;29562;40.390;-3.706;2022-10-31T09:56:55;17.65;;;8.82;;
43901;SDS011;29562;40.390;-3.706;2022-10-31T10:06:58;26.85;;;8.43;;
43901;SDS011;29562;40.390;-3.706;2022-10-31T10:37:32;14.80;;;6.70;;
43901;SDS011;29562;40.390;-3.706;2022-10-31T10:47:48;13.15;;;7.55;;
43901;SDS011;29562;40.390;-3.706;2022-10-31T10:57:55;27.67;;;9.75;;
43901;SDS011;29562;40.390;-3.706;2022-10-31T11:07:58;14.27;;;7.07;;
43901;SDS011;29562;40.390;-3.706;2022-10-31T11:18:00;17.30;;;7.45;;
43901;SDS011;29562;40.390;-3.706;2022-10-31T11:28:03;14.25;;;6.63;;
43901;SDS011;29562;40.390;-3.706;2022-10-31T11:38:06;17.13;;;7.75;;
43901;SDS011;29562;40.390;-3.706;2022-10-31T11:48:18;15.50;;;7.28;;
43901;SDS011;29562;40.390;-3.706;2022-10-31T11:58:22;14.35;;;7.28;;
43901;SDS011;29562;40.390;-3.706;2022-10-31T12:08:25;14.30;;;7.78;;
43901;SDS011;29562;40.390;-3.706;2022-10-31T12:28:39;96.68;;;14.27;;
43901;SDS011;29562;40.390;-3.706;2022-10-31T12:58:47;21.38;;;8.82;;
43901;SDS011;29562;40.390;-3.706;2022-10-31T13:08:54;23.60;;;7.85;;
43901;SDS011;29562;40.390;-3.706;2022-10-31T13:19:16;21.13;;;9.55;;
43901;SDS011;29562;40.390;-3.706;2022-10-31T13:29:27;19.00;;;7.82;;
43901;SDS011;29562;40.390;-3.706;2022-10-31T13:49:48;25.40;;;11.00;;
43901;SDS011;29562;40.390;-3.706;2022-10-31T13:59:52;20.13;;;8.23;;
43901;SDS011;29562;40.390;-3.706;2022-10-31T14:10:05;19.25;;;7.55;;
43901;SDS011;29562;40.390;-3.706;2022-10-31T14:30:14;13.85;;;7.00;;
43901;SDS011;29562;40.390;-3.706;2022-10-31T15:00:39;11.70;;;4.80;;
43901;SDS011;29562;40.390;-3.706;2022-10-31T15:10:44;13.23;;;5.15;;
43901;SDS011;29562;40.390;-3.706;2022-10-31T15:20:47;11.95;;;4.43;;
43901;SDS011;29562;40.390;-3.706;2022-10-31T15:30:50;11.45;;;5.43;;
43901;SDS011;29562;40.390;-3.706;2022-10-31T15:40:54;10.27;;;4.97;;
43901;SDS011;29562;40.390;-3.706;2022-10-31T15:50:56;13.10;;;5.22;;
43901;SDS011;29562;40.390;-3.706;2022-10-31T16:01:00;10.38;;;5.50;;
43901;SDS011;29562;40.390;-3.706;2022-10-31T16:21:08;13.68;;;6.80;;
43901;SDS011;29562;40.390;-3.706;2022-10-31T16:31:13;14.75;;;7.20;;
43901;SDS011;29562;40.390;-3.706;2022-10-31T16:41:17;10.27;;;5.60;;
43901;SDS011;29562;40.390;-3.706;2022-10-31T16:51:18;11.95;;;4.55;;
43901;SDS011;29562;40.390;-3.706;2022-10-31T17:01:20;8.07;;;4.13;;
43901;SDS011;29562;40.390;-3.706;2022-10-31T17:11:23;8.70;;;4.90;;
43901;SDS011;29562;40.390;-3.706;2022-10-31T17:21:26;5.97;;;2.83;;
43901;SDS011;29562;40.390;-3.706;2022-10-31T17:31:30;13.77;;;5.97;;
43901;SDS011;29562;40.390;-3.706;2022-10-31T17:41:32;4.50;;;2.47;;
43901;SDS011;29562;40.390;-3.706;2022-10-31T17:51:34;10.63;;;4.82;;
43901;SDS011;29562;40.390;-3.706;2022-10-31T18:01:36;4.60;;;1.30;;
43901;SDS011;29562;40.390;-3.706;2022-10-31T18:11:38;4.47;;;1.90;;
43901;SDS011;29562;40.390;-3.706;2022-10-31T18:21:41;3.15;;;1.90;;
43901;SDS011;29562;40.390;-3.706;2022-10-31T18:31:42;5.22;;;2.22;;
43901;SDS011;29562;40.390;-3.706;2022-10-31T18:41:48;5.47;;;2.17;;
43901;SDS011;29562;40.390;-3.706;2022-10-31T18:51:50;5.43;;;2.55;;
43901;SDS011;29562;40.390;-3.706;2022-10-31T19:01:52;7.47;;;2.30;;
43901;SDS011;29562;40.390;-3.706;2022-10-31T19:11:54;8.68;;;4.10;;
43901;SDS011;29562;40.390;-3.706;2022-10-31T19:21:56;8.27;;;3.20;;
43901;SDS011;29562;40.390;-3.706;2022-10-31T19:31:58;7.53;;;4.00;;
43901;SDS011;29562;40.390;-3.706;2022-10-31T19:42:00;10.25;;;5.45;;
43901;SDS011;29562;40.390;-3.706;2022-10-31T19:52:02;5.88;;;3.70;;
43901;SDS011;29562;40.390;-3.706;2022-10-31T20:02:04;6.95;;;4.03;;
43901;SDS011;29562;40.390;-3.706;2022-10-31T20:12:06;9.35;;;4.63;;
43901;SDS011;29562;40.390;-3.706;2022-10-31T20:22:09;6.68;;;3.53;;
43901;SDS011;29562;40.390;-3.706;2022-10-31T20:32:11;8.60;;;4.35;;
43901;SDS011;29562;40.390;-3.706;2022-10-31T20:42:13;6.57;;;3.85;;
43901;SDS011;29562;40.390;-3.706;2022-10-31T20:52:15;12.93;;;6.43;;
43901;SDS011;29562;40.390;-3.706;2022-10-31T21:02:17;9.85;;;4.97;;
43901;SDS011;29562;40.390;-3.706;2022-10-31T21:12:19;8.85;;;4.28;;
43901;SDS011;29562;40.390;-3.706;2022-10-31T21:22:21;10.20;;;4.97;;
43901;SDS011;29562;40.390;-3.706;2022-10-31T21:32:23;14.15;;;5.28;;
43901;SDS011;29562;40.390;-3.706;2022-10-31T21:42:25;7.95;;;4.75;;
43901;SDS011;29562;40.390;-3.706;2022-10-31T21:52:27;6.97;;;3.95;;
43901;SDS011;29562;40.390;-3.706;2022-10-31T22:02:29;6.90;;;4.20;;
43901;SDS011;29562;40.390;-3.706;2022-10-31T22:12:31;12.10;;;5.00;;
43901;SDS011;29562;40.390;-3.706;2022-10-31T22:22:33;6.43;;;4.07;;
43901;SDS011;29562;40.390;-3.706;2022-10-31T22:32:35;8.77;;;4.60;;
43901;SDS011;29562;40.390;-3.706;2022-10-31T22:42:37;11.80;;;5.40;;
43901;SDS011;29562;40.390;-3.706;2022-10-31T22:52:38;10.95;;;4.88;;
43901;SDS011;29562;40.390;-3.706;2022-10-31T23:02:40;13.40;;;6.35;;
43901;SDS011;29562;40.390;-3.706;2022-10-31T23:12:42;12.45;;;4.72;;
43901;SDS011;29562;40.390;-3.706;2022-10-31T23:23:03;9.82;;;4.53;;
43901;SDS011;29562;40.390;-3.706;2022-10-31T23:33:05;11.23;;;5.43;;
43901;SDS011;29562;40.390;-3.706;2022-10-31T23:43:07;9.27;;;5.45;;
43901;SDS011;29562;40.390;-3.706;2022-10-31T23:53:09;10.68;;;5.00;;
